Pelly, Canada
Current Conditions -  °F | °C
As of 8:05 PM on Sunday 21 Dec 2014 (Local Time) from CYQV Reporting Station
Haze Haze  
Wind Chill: 12°   Ceiling: 300
Heat Index: 23°   Visibility: 0.75mi
Dew Point: 23°   Wind: 12mph
Humidity: 100%   Direction: 80°E
Pressure: 29.47"   Gusts: NA
Location:  51.87°N, 101.92°W
Report Text: CYQV 220205Z AUTO 08010KT 3/4SM BR VV003 M05/M05 A2947 RMK ICG SLP008
Loading
Personal Weather Stations






























Interactive Weather Map New forecast layout! Learn more

10-Day Weather Forecast

Advertisements
Track Severe Weather on mobile